This is the latest recevied weather packets stored in our database for station/object IZ2MHJ-3. If no packets are shown the sender has not sent any weather packets the latest 10 day(s).
| Time | Temp. | Humidity | Pressure | Rain* | Wind** | Luminosity | Snow |
|---|---|---|---|---|---|---|---|
| 1787428248 | 24.44° C | 59% | 1017 hPa | - | - | - | - |
| 1787427047 | 24.44° C | 60% | 1016.7 hPa | - | - | - | - |
| 1787425847 | 26.11° C | 50% | 1016.3 hPa | - | - | - | - |
| 1787424647 | 25.56° C | 50% | 1016 hPa | - | - | - | - |
| 1787423446 | 26.67° C | 48% | 1015.5 hPa | - | - | - | - |
| 1787422246 | 27.22° C | 46% | 1015.3 hPa | - | - | - | - |
| 1787421046 | 28.89° C | 42% | 1015 hPa | - | - | - | - |
| 1787419846 | 29.44° C | 42% | 1014.9 hPa | - | - | - | - |
| 1787418645 | 30° C | 41% | 1014.7 hPa | - | - | - | - |
| 1787417445 | 30.56° C | 41% | 1014.7 hPa | - | - | - | - |
| 1787416245 | 32.22° C | 37% | 1014.5 hPa | - | - | - | - |
| 1787415044 | 31.11° C | 40% | 1014.6 hPa | - | - | - | - |
| 1787413844 | 31.67° C | 38% | 1014.5 hPa | - | - | - | - |
| 1787412644 | 32.22° C | 37% | 1014.4 hPa | - | - | - | - |
| 1787411444 | 30.56° C | 43% | 1014.5 hPa | - | - | - | - |
| 1787410243 | 30.56° C | 44% | 1014.5 hPa | - | - | - | - |
| 1787409043 | 32.78° C | 41% | 1014.4 hPa | - | - | - | - |
| 1787407843 | 33.33° C | 39% | 1014.5 hPa | - | - | - | - |
| 1787406643 | 31.11° C | 44% | 1014.6 hPa | - | - | - | - |
| 1787405442 | 33.89° C | 41% | 1014.5 hPa | - | - | - | - |
| 1787404241 | 31.67° C | 45% | 1014.7 hPa | - | - | - | - |
| 1787403041 | 30° C | 48% | 1014.9 hPa | - | - | - | - |
| 1787401841 | 29.44° C | 49% | 1015.2 hPa | - | - | - | - |
| 1787400641 | 29.44° C | 49% | 1015.2 hPa | - | - | - | - |
| 1787399440 | 29.44° C | 50% | 1015.2 hPa | - | - | - | - |
* Rain since midnight (hover to see other rain measurements)
** Current wind speed in m/s (hover to see current wind gust speed)